sensor_id;sensor_type;location;lat;lon;timestamp;temperature;humidity
52439;DHT22;38359;53.150;6.504;2023-05-07T00:06:16;14.00;99.90
52439;DHT22;38359;53.150;6.504;2023-05-07T00:16:42;13.90;99.90
52439;DHT22;38359;53.150;6.504;2023-05-07T00:27:08;13.60;99.90
52439;DHT22;38359;53.150;6.504;2023-05-07T00:37:34;13.60;99.90
52439;DHT22;38359;53.150;6.504;2023-05-07T00:48:00;13.70;99.90
52439;DHT22;38359;53.150;6.504;2023-05-07T00:58:27;13.60;99.90
52439;DHT22;38359;53.150;6.504;2023-05-07T01:08:54;13.50;99.90
52439;DHT22;38359;53.150;6.504;2023-05-07T01:19:22;13.40;99.90
52439;DHT22;38359;53.150;6.504;2023-05-07T01:29:47;13.40;99.90
52439;DHT22;38359;53.150;6.504;2023-05-07T01:40:13;13.10;99.90
52439;DHT22;38359;53.150;6.504;2023-05-07T01:50:41;13.10;99.90
52439;DHT22;38359;53.150;6.504;2023-05-07T02:01:07;13.00;99.90
52439;DHT22;38359;53.150;6.504;2023-05-07T02:11:32;13.00;99.90
52439;DHT22;38359;53.150;6.504;2023-05-07T02:21:58;12.90;99.90
52439;DHT22;38359;53.150;6.504;2023-05-07T02:32:24;12.90;99.90
52439;DHT22;38359;53.150;6.504;2023-05-07T02:42:50;12.80;99.90
52439;DHT22;38359;53.150;6.504;2023-05-07T02:53:15;12.90;99.90
52439;DHT22;38359;53.150;6.504;2023-05-07T03:03:41;12.80;99.90
52439;DHT22;38359;53.150;6.504;2023-05-07T03:14:07;12.60;99.90
52439;DHT22;38359;53.150;6.504;2023-05-07T03:24:33;12.80;99.90
52439;DHT22;38359;53.150;6.504;2023-05-07T03:34:58;12.60;99.90
52439;DHT22;38359;53.150;6.504;2023-05-07T03:45:24;12.70;99.90
52439;DHT22;38359;53.150;6.504;2023-05-07T03:55:51;12.50;99.90
52439;DHT22;38359;53.150;6.504;2023-05-07T04:06:16;12.40;99.90
52439;DHT22;38359;53.150;6.504;2023-05-07T04:16:42;12.50;99.90
52439;DHT22;38359;53.150;6.504;2023-05-07T04:27:08;12.50;99.90
52439;DHT22;38359;53.150;6.504;2023-05-07T04:37:34;12.50;99.90
52439;DHT22;38359;53.150;6.504;2023-05-07T04:48:00;12.40;99.90
52439;DHT22;38359;53.150;6.504;2023-05-07T04:58:26;12.30;99.90
52439;DHT22;38359;53.150;6.504;2023-05-07T05:08:52;12.30;99.90
52439;DHT22;38359;53.150;6.504;2023-05-07T05:19:18;12.30;99.90
52439;DHT22;38359;53.150;6.504;2023-05-07T05:29:44;12.20;99.90
52439;DHT22;38359;53.150;6.504;2023-05-07T05:40:10;12.20;99.90
52439;DHT22;38359;53.150;6.504;2023-05-07T05:50:36;12.40;99.90
52439;DHT22;38359;53.150;6.504;2023-05-07T06:01:02;12.30;99.90
52439;DHT22;38359;53.150;6.504;2023-05-07T06:11:28;12.30;99.90
52439;DHT22;38359;53.150;6.504;2023-05-07T06:21:54;12.40;99.90
52439;DHT22;38359;53.150;6.504;2023-05-07T06:32:21;12.50;99.90
52439;DHT22;38359;53.150;6.504;2023-05-07T06:42:47;12.50;99.90
52439;DHT22;38359;53.150;6.504;2023-05-07T06:53:13;12.40;99.90
52439;DHT22;38359;53.150;6.504;2023-05-07T07:03:40;12.70;99.90
52439;DHT22;38359;53.150;6.504;2023-05-07T07:14:05;12.70;99.90
52439;DHT22;38359;53.150;6.504;2023-05-07T07:24:31;12.70;99.90
52439;DHT22;38359;53.150;6.504;2023-05-07T07:34:57;12.60;99.90
52439;DHT22;38359;53.150;6.504;2023-05-07T07:45:23;12.60;99.90
52439;DHT22;38359;53.150;6.504;2023-05-07T07:55:49;12.80;99.90
52439;DHT22;38359;53.150;6.504;2023-05-07T08:06:14;13.00;99.90
52439;DHT22;38359;53.150;6.504;2023-05-07T08:16:40;13.10;99.90
52439;DHT22;38359;53.150;6.504;2023-05-07T08:27:06;13.10;99.90
52439;DHT22;38359;53.150;6.504;2023-05-07T08:37:32;13.20;99.90
52439;DHT22;38359;53.150;6.504;2023-05-07T08:48:08;13.80;99.90
52439;DHT22;38359;53.150;6.504;2023-05-07T08:58:35;13.80;99.90
52439;DHT22;38359;53.150;6.504;2023-05-07T09:09:01;14.00;99.90
52439;DHT22;38359;53.150;6.504;2023-05-07T09:19:28;14.50;99.90
52439;DHT22;38359;53.150;6.504;2023-05-07T09:29:54;14.90;99.90
52439;DHT22;38359;53.150;6.504;2023-05-07T09:40:24;15.20;99.90
52439;DHT22;38359;53.150;6.504;2023-05-07T09:50:55;15.40;99.90
52439;DHT22;38359;53.150;6.504;2023-05-07T10:01:25;15.90;99.90
52439;DHT22;38359;53.150;6.504;2023-05-07T10:11:53;16.10;99.90
52439;DHT22;38359;53.150;6.504;2023-05-07T10:22:20;16.10;99.90
52439;DHT22;38359;53.150;6.504;2023-05-07T10:32:49;16.00;99.90
52439;DHT22;38359;53.150;6.504;2023-05-07T10:43:17;16.50;99.90
52439;DHT22;38359;53.150;6.504;2023-05-07T10:53:43;16.80;99.90
52439;DHT22;38359;53.150;6.504;2023-05-07T11:04:15;16.60;99.90
52439;DHT22;38359;53.150;6.504;2023-05-07T11:25:17;17.30;99.90
52439;DHT22;38359;53.150;6.504;2023-05-07T11:35:44;17.90;99.90
52439;DHT22;38359;53.150;6.504;2023-05-07T11:46:12;18.10;99.90
52439;DHT22;38359;53.150;6.504;2023-05-07T11:56:39;18.40;99.90
52439;DHT22;38359;53.150;6.504;2023-05-07T12:07:10;18.70;99.90
52439;DHT22;38359;53.150;6.504;2023-05-07T12:17:38;18.80;99.90
52439;DHT22;38359;53.150;6.504;2023-05-07T12:28:04;19.10;99.90
52439;DHT22;38359;53.150;6.504;2023-05-07T12:38:35;20.00;99.90
52439;DHT22;38359;53.150;6.504;2023-05-07T12:49:02;19.70;99.90
52439;DHT22;38359;53.150;6.504;2023-05-07T12:59:39;20.00;99.90
52439;DHT22;38359;53.150;6.504;2023-05-07T13:10:06;20.70;99.90
52439;DHT22;38359;53.150;6.504;2023-05-07T13:20:32;20.70;99.90
52439;DHT22;38359;53.150;6.504;2023-05-07T13:30:58;22.00;99.90
52439;DHT22;38359;53.150;6.504;2023-05-07T13:41:23;22.60;99.90
52439;DHT22;38359;53.150;6.504;2023-05-07T13:51:49;22.80;99.90
52439;DHT22;38359;53.150;6.504;2023-05-07T14:02:15;23.00;99.90
52439;DHT22;38359;53.150;6.504;2023-05-07T14:12:41;24.70;99.90
52439;DHT22;38359;53.150;6.504;2023-05-07T14:23:07;24.70;99.90
52439;DHT22;38359;53.150;6.504;2023-05-07T14:33:34;25.00;99.90
52439;DHT22;38359;53.150;6.504;2023-05-07T14:44:00;24.50;99.90
52439;DHT22;38359;53.150;6.504;2023-05-07T14:54:29;24.30;99.90
52439;DHT22;38359;53.150;6.504;2023-05-07T15:04:55;24.60;99.90
52439;DHT22;38359;53.150;6.504;2023-05-07T15:15:21;23.60;99.90
52439;DHT22;38359;53.150;6.504;2023-05-07T15:25:46;23.00;99.90
52439;DHT22;38359;53.150;6.504;2023-05-07T15:36:12;24.40;99.90
52439;DHT22;38359;53.150;6.504;2023-05-07T15:46:38;25.80;99.90
52439;DHT22;38359;53.150;6.504;2023-05-07T15:57:04;25.30;99.90
52439;DHT22;38359;53.150;6.504;2023-05-07T16:07:31;25.40;99.90
52439;DHT22;38359;53.150;6.504;2023-05-07T16:17:57;26.50;99.90
52439;DHT22;38359;53.150;6.504;2023-05-07T16:28:23;27.70;99.90
52439;DHT22;38359;53.150;6.504;2023-05-07T16:38:49;27.00;99.90
52439;DHT22;38359;53.150;6.504;2023-05-07T16:49:15;24.80;99.90
52439;DHT22;38359;53.150;6.504;2023-05-07T16:59:41;25.20;99.30
52439;DHT22;38359;53.150;6.504;2023-05-07T17:10:07;23.90;99.90
52439;DHT22;38359;53.150;6.504;2023-05-07T17:20:33;25.90;99.90
52439;DHT22;38359;53.150;6.504;2023-05-07T17:31:02;26.40;98.90
52439;DHT22;38359;53.150;6.504;2023-05-07T17:41:28;22.80;99.90
52439;DHT22;38359;53.150;6.504;2023-05-07T17:51:54;23.20;99.90
52439;DHT22;38359;53.150;6.504;2023-05-07T18:02:20;22.60;99.90
52439;DHT22;38359;53.150;6.504;2023-05-07T18:12:45;21.60;99.90
52439;DHT22;38359;53.150;6.504;2023-05-07T18:23:11;20.70;99.90
52439;DHT22;38359;53.150;6.504;2023-05-07T18:33:37;19.80;99.90
52439;DHT22;38359;53.150;6.504;2023-05-07T18:44:03;19.40;99.90
52439;DHT22;38359;53.150;6.504;2023-05-07T18:54:29;18.80;99.90
52439;DHT22;38359;53.150;6.504;2023-05-07T19:04:54;18.70;99.90
52439;DHT22;38359;53.150;6.504;2023-05-07T19:15:21;18.20;99.90
52439;DHT22;38359;53.150;6.504;2023-05-07T19:25:47;18.10;99.90
52439;DHT22;38359;53.150;6.504;2023-05-07T19:36:15;17.60;99.90
52439;DHT22;38359;53.150;6.504;2023-05-07T19:46:41;17.20;99.90
52439;DHT22;38359;53.150;6.504;2023-05-07T19:57:09;16.90;99.90
52439;DHT22;38359;53.150;6.504;2023-05-07T20:07:35;16.70;99.90
52439;DHT22;38359;53.150;6.504;2023-05-07T20:18:01;16.50;99.90
52439;DHT22;38359;53.150;6.504;2023-05-07T20:28:28;16.10;99.90
52439;DHT22;38359;53.150;6.504;2023-05-07T20:38:53;15.90;99.90
52439;DHT22;38359;53.150;6.504;2023-05-07T20:49:20;15.60;99.90
52439;DHT22;38359;53.150;6.504;2023-05-07T20:59:47;15.70;99.90
52439;DHT22;38359;53.150;6.504;2023-05-07T21:10:13;15.40;99.90
52439;DHT22;38359;53.150;6.504;2023-05-07T21:20:39;15.10;99.90
52439;DHT22;38359;53.150;6.504;2023-05-07T21:31:05;14.90;99.90
52439;DHT22;38359;53.150;6.504;2023-05-07T21:41:30;14.60;99.90
52439;DHT22;38359;53.150;6.504;2023-05-07T21:51:56;15.10;99.90
52439;DHT22;38359;53.150;6.504;2023-05-07T22:02:22;14.50;99.90
52439;DHT22;38359;53.150;6.504;2023-05-07T22:12:48;14.50;99.90
52439;DHT22;38359;53.150;6.504;2023-05-07T22:23:13;14.10;99.90
52439;DHT22;38359;53.150;6.504;2023-05-07T22:33:39;13.90;99.90
52439;DHT22;38359;53.150;6.504;2023-05-07T22:44:05;13.80;99.90
52439;DHT22;38359;53.150;6.504;2023-05-07T22:54:31;13.60;99.90
52439;DHT22;38359;53.150;6.504;2023-05-07T23:04:59;13.40;99.90
52439;DHT22;38359;53.150;6.504;2023-05-07T23:15:26;13.30;99.90
52439;DHT22;38359;53.150;6.504;2023-05-07T23:25:51;13.10;99.90
52439;DHT22;38359;53.150;6.504;2023-05-07T23:36:17;13.00;99.90
52439;DHT22;38359;53.150;6.504;2023-05-07T23:46:43;12.90;99.90
52439;DHT22;38359;53.150;6.504;2023-05-07T23:57:09;12.70;99.90
